Portada
METAR-TAF:

METAR-TAF

Aeroports :

Port Sudan, Sudan

latitud: 19-26N, longitud: 037-14E, altitud: 138 m

METAR: manca

Hora: 12:00 (10:00 UTC)

Pronòstic

L'informe es va fer fa 11 hores i 0 minuts, a les 23:00 UTC
Pronòstic vàlid del 05 a les 00 UTC al 06 a les 06 UTC
Vent 8 kt del Oest amb ràfegues de 18 kt
Visibilitat 10 km o més
Núvols disperses a una alçada de 13000 ft
Temporalment
l' 05 a les 10 UTC al 05 a les 20 UTC
Visibilitat: 6000 m
Escasses núvols a una alçada de 3000 ft
Cel ennuvolat a una alçada de 13000 ft

TAF: HSPN 042300Z 0500/0606 27008G18KT 9999 SCT130 TEMPO 0510/0520 6000 FEW030 BKN130

Observacions i pronòstics meteorològics de més de 4000 aeroports (METAR i TAF).

Les estacions disponibles són els punts grocs i vermells al mapa.

Posi el ratolí al punt desitjat per veure el nom de l'estació.

Feu clic per veure les observacions i els pronòstics meteorològics.

Per canviar el mapa: feu clic els botons verds amb una creu de color negre per apropar; al botó verd amb un guió per allunyar la imatge; o en les fletxes verdes per a mapes adjacents.


METAR-TAF: